Latest Weather Observations for Edithburgh

IDS60801

Issued at 1:01 pm CDT Saturday 6 February 2016 (issued every 30 minutes, with the page automatically refreshed every 10 minutes)

About weather observations | Map of weather stations | Latest weather observations for SA | Other Formats
Station Details ID: 022046 Name: EDITHBURGH Lat: -35.11 Lon: 137.74 Height: 6.0 m
Data from the previous 72 hours. | See also: Recent months at Edithburgh
Date/Time
CDT
Temp
°C
App
Temp
°C
Dew
Point
Rel
Hum
%
Delta-T
°C
Wind Press
QNH
hPa
Press
MSL
hPa
Rain
since 9 am
mm
Dir
 
Spd
km/h
Gust
km/h
Spd
kts
Gust
kts
06/01:00pm 22.8 21.6 17.5 72 3.3 S 20 30 11 16 1015.3 1015.3 0.0
06/12:30pm 22.7 21.4 17.2 71 3.4 S 20 28 11 15 1015.3 1015.3 0.0
06/12:00pm 21.9 20.6 17.3 75 2.8 S 20 28 11 15 1015.5 1015.5 0.0
06/11:30am 21.7 21.1 17.5 77 2.6 S 17 24 9 13 1015.8 1015.8 0.0
06/11:00am 21.6 20.6 17.5 77 2.5 SSE 19 24 10 13 1015.8 1015.8 0.0
06/10:30am 21.1 20.8 17.3 79 2.3 S 15 20 8 11 1015.9 1015.9 0.0
06/10:00am 20.8 20.2 17.5 81 2.0 S 17 24 9 13 1015.8 1015.8 0.0
06/09:30am 20.4 19.1 17.3 82 1.9 SSE 20 26 11 14 1015.6 1015.6 0.0
06/09:00am 19.9 18.2 17.1 84 1.7 SSE 22 26 12 14 1015.5 1015.5 0.0
06/08:30am 19.9 18.6 17.3 85 1.6 S 20 26 11 14 1015.4 1015.4 0.0
06/08:00am 19.6 18.4 17.1 85 1.5 S 19 26 10 14 1015.3 1015.3 0.0
06/07:30am 18.9 17.1 16.9 88 1.2 S 22 28 12 15 1014.8 1014.8 0.0
06/07:00am 18.6 16.8 16.9 90 1.0 S 22 28 12 15 1014.7 1014.7 0.0
06/06:30am 18.5 17.1 17.0 91 0.9 S 20 26 11 14 1014.4 1014.4 0.0
06/06:00am 18.6 16.7 16.8 89 1.1 SSE 22 28 12 15 1014.1 1014.1 0.0
06/05:30am 18.4 16.5 16.7 90 1.0 S 22 30 12 16 1014.2 1014.2 0.0
06/05:00am 18.4 16.8 16.6 89 1.1 SSE 20 30 11 16 1014.1 1014.1 0.0
06/04:30am 18.3 16.3 16.5 89 1.1 SSE 22 30 12 16 1014.3 1014.3 0.0
06/04:00am 18.3 16.3 16.5 89 1.1 S 22 32 12 17 1014.5 1014.5 0.0
06/03:30am 18.3 15.9 16.5 89 1.1 SSE 24 32 13 17 1014.6 1014.6 0.0
06/03:00am 18.3 14.9 15.9 86 1.4 SSE 28 35 15 19 1014.8 1014.8 0.0
06/02:30am 18.2 14.8 15.8 86 1.4 SSE 28 35 15 19 1015.1 1015.1 0.0
06/02:00am 18.3 14.5 15.8 85 1.5 SSE 30 37 16 20 1015.4 1015.4 0.0
06/01:30am 18.2 14.3 15.5 84 1.6 SSE 30 39 16 21 1015.7 1015.7 0.0
06/01:00am 18.1 13.7 15.2 83 1.7 SSE 32 43 17 23 1015.8 1015.8 0.0
06/12:30am 18.1 14.2 15.5 85 1.5 SSE 30 43 16 23 1016.2 1016.2 0.0
06/12:00am 18.1 13.7 15.2 83 1.7 SSE 32 43 17 23 1016.4 1016.4 0.0
 
Date/Time
CDT
Temp
°C
App
Temp
°C
Dew
Point
Rel
Hum
%
Delta-T
°C
Wind Press
QNH
hPa
Press
MSL
hPa
Rain
since 9 am
mm
Dir
 
Spd
km/h
Gust
km/h
Spd
kts
Gust
kts
05/11:30pm 18.0 14.0 15.1 83 1.7 SSE 30 43 16 23 1016.6 1016.6 0.0
05/11:00pm 18.1 13.5 15.0 82 1.8 SSE 33 46 18 25 1016.8 1016.8 0.0
05/10:30pm 18.1 13.4 14.8 81 1.9 SSE 33 43 18 23 1016.7 1016.7 0.0
05/10:00pm 18.1 13.4 14.8 81 1.9 SSE 33 43 18 23 1016.9 1016.9 0.0
05/09:30pm 18.2 13.2 14.0 76 2.4 S 33 44 18 24 1016.7 1016.7 0.0
05/09:00pm 18.4 13.5 13.6 73 2.7 SSE 32 41 17 22 1016.4 1016.4 0.0
05/08:30pm 18.4 13.7 14.2 76 2.4 SSE 32 43 17 23 1016.2 1016.2 0.0
05/08:00pm 18.7 14.3 14.2 75 2.6 SSE 30 39 16 21 1016.2 1016.2 0.0
05/07:30pm 18.9 14.1 14.0 73 2.8 SSE 32 43 17 23 1015.9 1015.9 0.0
05/07:00pm 19.4 15.0 14.0 71 3.1 S 30 39 16 21 1016.0 1016.0 0.0
05/06:30pm 19.8 15.0 13.9 69 3.4 S 32 39 17 21 1015.9 1015.9 0.0
05/06:00pm 20.4 16.7 13.8 66 3.8 S 26 35 14 19 1016.1 1016.1 0.0
05/05:30pm 20.2 15.6 13.4 65 3.9 S 30 35 16 19 1016.2 1016.2 0.0
05/05:00pm 20.1 15.9 13.4 65 3.8 SSE 28 37 15 20 1016.4 1016.4 0.0
05/04:30pm 20.4 15.6 13.0 62 4.2 SSE 30 37 16 20 1016.5 1016.5 0.0
05/04:00pm 21.2 16.9 13.1 60 4.6 SSE 28 35 15 19 1016.8 1016.8 0.0
05/03:30pm 20.4 15.5 12.6 61 4.4 SSE 30 35 16 19 1017.0 1017.0 0.0
05/03:00pm 20.9 16.0 12.4 58 4.8 SSE 30 39 16 21 1017.2 1017.2 0.0
05/02:30pm 20.6 15.8 11.8 57 4.9 SSE 28 35 15 19 1017.8 1017.8 0.0
05/02:00pm 20.5 16.0 12.7 61 4.4 SSE 28 35 15 19 1017.9 1017.9 0.0
05/01:30pm 20.2 15.9 12.1 59 4.5 SSE 26 33 14 18 1018.2 1018.2 0.0
05/01:00pm 20.0 16.2 12.3 61 4.3 SSE 24 32 13 17 1018.6 1018.6 0.0
05/12:30pm 19.7 15.3 11.7 60 4.4 SSE 26 32 14 17 1018.8 1018.8 0.0
05/12:00pm 20.1 15.8 12.0 59 4.5 SSE 26 33 14 18 1019.1 1019.1 0.0
05/11:30am 19.7 14.9 11.5 59 4.5 SE 28 35 15 19 1019.3 1019.3 0.0
05/11:00am 19.4 14.9 11.4 60 4.4 SE 26 33 14 18 1019.4 1019.4 0.0
05/10:30am 19.3 14.7 11.2 59 4.4 SE 26 35 14 19 1019.6 1019.6 0.0
05/10:00am 18.2 12.8 11.0 63 3.9 SE 30 39 16 21 1019.6 1019.6 0.0
05/09:30am 18.4 14.4 11.8 65 3.6 SE 24 35 13 19 1020.0 1019.9 0.0
05/09:00am 17.6 13.0 11.1 65 3.5 SE 26 33 14 18 1020.1 1020.0 0.0
05/08:30am 17.2 12.9 10.8 66 3.4 SE 24 33 13 18 1020.0 1019.9 0.0
05/08:00am 16.9 12.9 10.5 66 3.4 SE 22 32 12 17 1019.7 1019.7 0.0
05/07:30am 16.9 12.7 11.1 68 3.1 SE 24 33 13 18 1019.4 1019.4 0.0
05/07:00am 16.9 13.1 11.3 69 3.0 SE 22 30 12 16 1019.2 1019.2 0.0
05/06:30am 16.9 12.4 11.3 69 3.0 SE 26 37 14 20 1018.9 1018.9 0.0
05/06:00am 16.9 12.3 11.1 68 3.1 SSE 26 35 14 19 1018.7 1018.7 0.0
05/05:30am 17.1 12.7 11.8 71 2.9 SSE 26 35 14 19 1018.5 1018.5 0.0
05/05:00am 17.1 12.3 11.6 70 3.0 SE 28 35 15 19 1018.4 1018.4 0.0
05/04:30am 17.1 12.8 12.0 72 2.8 SE 26 37 14 20 1018.4 1018.4 0.0
05/04:00am 17.1 12.1 12.2 73 2.7 SSE 30 39 16 21 1018.2 1018.2 0.0
05/03:30am 16.9 11.5 12.2 74 2.6 SSE 32 44 17 24 1018.2 1018.2 0.0
05/03:00am 16.8 11.3 12.0 73 2.6 SSE 32 43 17 23 1018.3 1018.3 0.0
05/02:30am 16.7 11.0 11.7 72 2.7 SE 33 43 18 23 1018.4 1018.4 0.0
05/02:00am 16.8 10.8 12.2 74 2.5 SSE 35 46 19 25 1018.7 1018.7 0.0
05/01:30am 16.9 11.0 12.4 75 2.5 SSE 35 46 19 25 1019.0 1019.0 0.0
05/01:00am 17.0 10.9 11.9 72 2.8 SSE 35 50 19 27 1019.4 1019.4 0.0
05/12:30am 17.0 11.1 12.3 74 2.6 SSE 35 48 19 26 1019.2 1019.2 0.0
05/12:00am 17.3 11.4 12.4 73 2.7 SSE 35 46 19 25 1019.4 1019.4 0.0
 
Date/Time
CDT
Temp
°C
App
Temp
°C
Dew
Point
Rel
Hum
%
Delta-T
°C
Wind Press
QNH
hPa
Press
MSL
hPa
Rain
since 9 am
mm
Dir
 
Spd
km/h
Gust
km/h
Spd
kts
Gust
kts
04/11:30pm 17.5 11.9 12.0 70 3.0 SSE 33 43 18 23 1019.6 1019.6 0.0
04/11:00pm 17.5 12.1 12.8 74 2.6 SSE 33 46 18 25 1019.7 1019.7 0.0
04/10:30pm 17.3 11.8 12.4 73 2.7 SSE 33 46 18 25 1020.0 1019.9 0.0
04/10:00pm 17.4 11.5 12.5 73 2.7 SSE 35 48 19 26 1020.0 1019.9 0.0
04/09:30pm 17.4 12.0 12.7 74 2.6 SSE 33 44 18 24 1019.9 1019.8 0.0
04/09:00pm 17.5 11.6 12.4 72 2.8 SSE 35 44 19 24 1019.7 1019.7 0.0
04/08:30pm 17.6 11.6 12.1 70 3.0 SSE 35 44 19 24 1019.5 1019.5 0.0
04/08:00pm 17.9 11.5 12.1 69 3.2 SSE 37 50 20 27 1019.5 1019.5 0.0
04/07:30pm 18.3 11.7 11.3 63 3.8 SSE 37 50 20 27 1019.3 1019.3 0.0
04/07:00pm 18.7 12.2 11.6 63 3.9 SSE 37 48 20 26 1019.2 1019.2 0.0
04/06:30pm 19.0 12.4 11.3 61 4.2 SSE 37 48 20 26 1019.2 1019.2 0.0
04/06:00pm 19.3 13.1 11.4 60 4.3 SSE 35 48 19 26 1019.1 1019.1 0.0
04/05:30pm 19.9 13.3 11.5 58 4.6 SSE 37 46 20 25 1019.1 1019.1 0.0
04/05:00pm 20.0 13.8 11.5 58 4.7 SSE 35 48 19 26 1019.2 1019.2 0.0
04/04:30pm 20.4 14.3 11.7 57 4.8 SSE 35 44 19 24 1019.4 1019.4 0.0
04/04:00pm 20.6 14.4 11.3 55 5.1 SSE 35 50 19 27 1019.5 1019.5 0.0
04/03:30pm 20.9 14.7 11.5 55 5.2 SSE 35 46 19 25 1019.9 1019.8 0.0
04/03:00pm 21.0 14.7 11.2 53 5.4 SSE 35 46 19 25 1020.0 1019.9 0.0
04/02:30pm 20.5 14.6 11.0 54 5.2 SSE 33 44 18 24 1020.2 1020.1 0.0
04/02:00pm 20.6 14.2 10.7 53 5.4 SSE 35 44 19 24 1020.4 1020.3 0.0
04/01:30pm 20.5 14.4 10.3 52 5.5 SSE 33 43 18 23 1020.9 1020.8 0.0
04/01:00pm 20.4 14.2 10.2 52 5.5 SSE 33 43 18 23 1021.2 1021.1 0.0
04/12:30pm 20.4 14.4 10.8 54 5.2 SSE 33 44 18 24 1021.3 1021.2 0.0
04/12:00pm 20.0 14.4 10.3 53 5.2 SSE 30 39 16 21 1021.6 1021.5 0.0
04/11:30am 19.8 14.3 10.5 55 5.0 SSE 30 41 16 22 1021.8 1021.7 0.0
04/11:00am 20.4 14.8 10.2 52 5.5 SSE 30 39 16 21 1021.9 1021.8 0.0
04/10:30am 19.5 13.7 10.8 57 4.7 SE 32 39 17 21 1021.6 1021.5 0.0
04/10:00am 18.8 13.0 10.8 59 4.3 SSE 32 44 17 24 1021.4 1021.3 0.0
04/09:30am 18.4 12.7 11.2 63 3.9 SSE 32 41 17 22 1021.3 1021.2 0.0
04/09:00am 18.3 13.0 10.0 58 4.4 SE 28 37 15 20 1021.2 1021.1 0.0
04/08:30am 18.4 13.0 10.8 61 4.1 SSE 30 39 16 21 1021.1 1021.0 0.0
04/08:00am 17.9 12.9 11.0 64 3.7 SSE 28 37 15 20 1020.8 1020.7 0.0
04/07:30am 17.6 12.4 10.2 62 3.9 SSE 28 39 15 21 1020.7 1020.6 0.0
04/07:00am 17.4 11.6 9.3 59 4.2 SE 30 43 16 23 1020.5 1020.4 0.0
04/06:30am 17.4 12.4 10.9 65 3.5 SSE 28 37 15 20 1020.2 1020.1 0.0
04/06:00am 17.7 12.2 10.6 63 3.8 SSE 30 37 16 20 1020.0 1019.9 0.0
04/05:30am 17.6 12.0 10.0 61 4.0 SE 30 46 16 25 1019.4 1019.4 0.0
04/05:00am 17.7 12.2 10.4 62 3.9 SE 30 41 16 22 1019.1 1019.1 0.0
04/04:30am 17.7 12.2 10.4 62 3.9 SE 30 39 16 21 1019.0 1019.0 0.0
04/04:00am 17.8 12.5 9.8 59 4.2 SSE 28 35 15 19 1018.7 1018.7 0.0
04/03:30am 17.9 12.3 10.0 60 4.2 SSE 30 39 16 21 1018.7 1018.7 0.0
04/03:00am 17.6 12.3 10.0 61 4.0 SSE 28 37 15 20 1018.7 1018.7 0.0
04/02:30am 17.9 12.9 10.8 63 3.8 SSE 28 41 15 22 1018.5 1018.5 0.0
04/02:00am 17.8 12.6 10.3 61 4.0 SSE 28 37 15 20 1018.5 1018.5 0.0
04/01:30am 17.9 12.5 10.8 63 3.8 SSE 30 43 16 23 1018.4 1018.4 0.0
04/01:00am 18.2 12.3 10.5 60 4.1 SE 32 43 17 23 1018.6 1018.6 0.0
04/12:30am 18.1 12.6 10.6 61 4.0 SSE 30 41 16 22 1018.7 1018.7 0.0
04/12:00am 18.4 12.7 11.2 63 3.9 SSE 32 41 17 22 1018.4 1018.4 0.0
 
Date/Time
CDT
Temp
°C
App
Temp
°C
Dew
Point
Rel
Hum
%
Delta-T
°C
Wind Press
QNH
hPa
Press
MSL
hPa
Rain
since 9 am
mm
Dir
 
Spd
km/h
Gust
km/h
Spd
kts
Gust
kts
03/11:30pm 18.6 12.7 10.6 59 4.3 SSE 32 44 17 24 1018.5 1018.5 0.0
03/11:00pm 18.6 13.3 11.2 62 4.0 SSE 30 41 16 22 1018.7 1018.7 0.0
03/10:30pm 18.5 14.0 11.3 63 3.9 SSE 26 35 14 19 1019.0 1019.0 0.0
03/10:00pm 18.6 13.4 10.1 57 4.5 SSE 28 37 15 20 1019.0 1019.0 0.0
03/09:30pm 18.4 12.7 9.9 57 4.5 SSE 30 39 16 21 1018.7 1018.7 0.0
03/09:00pm 18.7 13.7 10.9 60 4.2 SSE 28 37 15 20 1018.6 1018.6 0.0
03/08:30pm 18.8 13.3 10.6 59 4.4 SSE 30 37 16 20 1018.3 1018.3 0.0
03/08:00pm 18.9 13.4 10.5 58 4.5 SSE 30 39 16 21 1018.0 1018.0 0.0
03/07:30pm 19.8 14.4 10.8 56 4.9 S 30 37 16 20 1017.7 1017.7 0.0
03/07:00pm 19.8 14.6 10.3 54 5.1 S 28 39 15 21 1017.4 1017.4 0.0
03/06:30pm 20.0 14.3 9.9 52 5.4 S 30 43 16 23 1016.9 1016.9 0.0
03/06:00pm 20.2 14.6 10.2 52 5.4 S 30 41 16 22 1016.7 1016.7 0.0
03/05:30pm 20.4 14.5 10.6 53 5.3 S 32 39 17 21 1016.5 1016.5 0.0
03/05:00pm 20.9 15.3 10.2 50 5.8 S 30 39 16 21 1016.4 1016.4 0.0
03/04:30pm 20.9 15.3 10.2 50 5.8 S 30 39 16 21 1016.4 1016.4 0.0
03/04:00pm 21.3 15.3 10.0 48 6.1 S 32 44 17 24 1016.3 1016.3 0.0
03/03:30pm 21.6 15.8 10.9 50 5.9 S 32 44 17 24 1016.1 1016.1 0.0
03/03:00pm 21.8 16.6 11.6 52 5.7 S 30 39 16 21 1015.9 1015.9 0.0
03/02:30pm 21.6 15.9 11.3 52 5.7 SSE 32 41 17 22 1015.8 1015.8 0.0
03/02:00pm 21.8 16.5 11.1 50 5.9 S 30 37 16 20 1015.9 1015.9 0.0
03/01:30pm 21.4 16.0 10.8 50 5.8 S 30 39 16 21 1015.7 1015.7 0.0

Other Formats:

Comma delimited format used in spreadsheet applications
http://www.bom.gov.au/fwo/IDS60801/IDS60801.94809.axf

JavaScript Object Notation format (JSON) in row-major order
http://www.bom.gov.au/fwo/IDS60801/IDS60801.94809.json